createdAt,value
2022-10-01T00:00:08.826Z,11.88
2022-10-01T00:02:37.849Z,7.85
2022-10-01T00:05:06.598Z,13.32
2022-10-01T00:07:40.329Z,12.95
2022-10-01T00:10:07.614Z,8.77
2022-10-01T00:12:34.819Z,8.98
2022-10-01T00:15:05.955Z,10.60
2022-10-01T00:17:33.664Z,14.10
2022-10-01T00:20:00.572Z,8.45
2022-10-01T00:22:27.356Z,8.82
2022-10-01T00:24:54.071Z,8.93
2022-10-01T00:27:20.751Z,7.03
2022-10-01T00:29:47.488Z,12.50
2022-10-01T00:32:14.469Z,16.95
2022-10-01T00:34:41.171Z,13.00
2022-10-01T00:37:10.343Z,12.93
2022-10-01T00:39:37.317Z,7.15
2022-10-01T00:42:05.354Z,16.45
2022-10-01T00:44:34.577Z,11.45
2022-10-01T00:47:08.558Z,15.02
2022-10-01T00:49:35.795Z,17.67
2022-10-01T00:52:04.243Z,12.02
2022-10-01T00:54:46.222Z,6.82
2022-10-01T00:57:14.315Z,11.20
2022-10-01T00:59:40.976Z,12.82
2022-10-01T01:02:07.787Z,9.85
2022-10-01T01:04:34.615Z,10.18
2022-10-01T01:07:01.987Z,12.10
2022-10-01T01:09:31.546Z,14.57
2022-10-01T01:12:55.791Z,19.85
2022-10-01T01:15:36.948Z,22.48
2022-10-01T01:18:21.450Z,14.18
2022-10-01T01:20:53.598Z,17.35
2022-10-01T01:23:35.605Z,13.02
2022-10-01T01:26:17.208Z,15.75
2022-10-01T01:28:46.737Z,9.93
2022-10-01T01:31:20.103Z,12.02
2022-10-01T01:33:46.922Z,21.30
2022-10-01T01:36:35.652Z,10.85
2022-10-01T01:39:07.073Z,14.70
2022-10-01T01:41:36.098Z,21.95
2022-10-01T01:44:03.843Z,17.15
2022-10-01T01:46:33.886Z,18.13
2022-10-01T01:49:01.232Z,18.48
2022-10-01T01:51:33.020Z,10.43
2022-10-01T01:54:00.025Z,33.70
2022-10-01T01:56:26.724Z,20.40
2022-10-01T01:58:57.385Z,19.88
2022-10-01T02:01:40.566Z,17.30
2022-10-01T02:04:11.796Z,18.90
2022-10-01T02:07:07.320Z,22.13
2022-10-01T02:09:45.022Z,19.23
2022-10-01T02:12:33.801Z,16.30
2022-10-01T02:15:25.448Z,17.25
2022-10-01T02:17:58.106Z,10.55
2022-10-01T02:20:45.813Z,23.08
2022-10-01T02:23:15.710Z,14.95
2022-10-01T02:25:45.172Z,13.20
2022-10-01T02:28:14.122Z,17.05
2022-10-01T02:30:41.697Z,21.42
2022-10-01T02:33:08.480Z,16.50
2022-10-01T02:35:35.441Z,19.77
2022-10-01T02:38:04.579Z,11.55
2022-10-01T02:40:32.535Z,23.38
2022-10-01T02:43:01.916Z,18.52
2022-10-01T02:45:32.200Z,23.75
2022-10-01T02:48:07.788Z,25.20
2022-10-01T02:50:50.777Z,19.13
2022-10-01T02:53:31.540Z,15.65
2022-10-01T02:55:58.446Z,17.80
2022-10-01T02:58:25.204Z,19.27
2022-10-01T03:00:53.056Z,17.15
2022-10-01T03:03:19.774Z,25.40
2022-10-01T03:05:46.517Z,21.83
2022-10-01T03:08:13.230Z,22.70
2022-10-01T03:10:42.440Z,17.27
2022-10-01T03:13:13.411Z,23.67
2022-10-01T03:15:40.148Z,23.52
2022-10-01T03:18:06.984Z,24.10
2022-10-01T03:20:33.676Z,16.40
2022-10-01T03:23:00.427Z,24.60
2022-10-01T03:25:27.135Z,18.50
2022-10-01T03:27:53.909Z,21.38
2022-10-01T03:30:21.504Z,25.00
2022-10-01T03:32:48.170Z,28.25
2022-10-01T03:35:14.852Z,22.55
2022-10-01T03:37:41.628Z,32.83
2022-10-01T03:40:09.062Z,18.70
2022-10-01T03:42:36.545Z,22.67
2022-10-01T03:45:03.410Z,22.75
2022-10-01T03:47:30.320Z,20.33
2022-10-01T03:49:57.072Z,40.22
2022-10-01T03:52:23.740Z,22.48
2022-10-01T03:54:50.457Z,23.88
2022-10-01T03:57:17.172Z,26.83
2022-10-01T03:59:43.827Z,25.77
2022-10-01T04:02:10.658Z,18.75
2022-10-01T04:04:37.434Z,21.90
2022-10-01T04:07:04.102Z,28.70
2022-10-01T04:09:30.783Z,19.17
2022-10-01T04:11:57.894Z,22.45
2022-10-01T04:14:24.573Z,21.50
2022-10-01T04:16:52.470Z,17.00
2022-10-01T04:19:20.166Z,19.50
2022-10-01T04:21:46.919Z,23.48
2022-10-01T04:24:13.631Z,24.60
2022-10-01T04:26:40.495Z,13.50
2022-10-01T04:29:07.239Z,11.20
2022-10-01T04:31:35.581Z,28.88
2022-10-01T04:34:02.900Z,25.13
2022-10-01T04:36:29.710Z,20.38
2022-10-01T04:39:01.749Z,21.42
2022-10-01T04:41:31.004Z,15.38
2022-10-01T04:43:59.904Z,14.80
2022-10-01T04:46:27.491Z,17.42
2022-10-01T04:48:54.249Z,14.68
2022-10-01T04:51:21.414Z,22.02
2022-10-01T04:53:48.168Z,17.77
2022-10-01T04:56:14.906Z,19.65
2022-10-01T04:58:41.924Z,20.40
2022-10-01T05:01:08.688Z,37.30
2022-10-01T05:03:35.546Z,29.45
2022-10-01T05:06:02.332Z,21.08
2022-10-01T05:08:29.439Z,25.05
2022-10-01T05:10:56.180Z,22.98
2022-10-01T05:13:22.880Z,24.83
2022-10-01T05:15:52.117Z,19.67
2022-10-01T05:18:19.075Z,38.67
2022-10-01T05:20:45.815Z,29.50
2022-10-01T05:23:12.609Z,22.08
2022-10-01T05:25:39.307Z,21.10
2022-10-01T05:28:06.165Z,32.17
2022-10-01T05:30:33.319Z,29.70
2022-10-01T05:33:01.685Z,21.35
2022-10-01T05:35:28.520Z,27.23
2022-10-01T05:37:56.503Z,25.90
2022-10-01T05:40:27.583Z,31.00
2022-10-01T05:42:58.445Z,30.05
2022-10-01T05:45:26.898Z,24.17
2022-10-01T05:48:12.807Z,22.33
2022-10-01T05:50:44.103Z,22.45
2022-10-01T05:53:11.524Z,26.08
2022-10-01T05:55:38.631Z,30.55
2022-10-01T05:58:10.440Z,20.80
2022-10-01T06:00:37.502Z,30.98
2022-10-01T06:03:04.887Z,23.40
2022-10-01T06:05:32.949Z,28.38
2022-10-01T06:08:00.780Z,29.38
2022-10-01T06:10:30.248Z,31.20
2022-10-01T06:13:01.840Z,17.17
2022-10-01T06:15:29.367Z,24.42
2022-10-01T06:17:56.107Z,23.08
2022-10-01T06:20:24.097Z,25.55
2022-10-01T06:22:56.225Z,24.20
2022-10-01T06:25:23.181Z,23.42
2022-10-01T06:27:55.564Z,22.05
2022-10-01T06:30:28.557Z,15.57
2022-10-01T06:33:05.901Z,28.03
2022-10-01T06:35:32.982Z,25.73
2022-10-01T06:38:01.671Z,16.75
2022-10-01T06:40:31.120Z,25.35
2022-10-01T06:42:58.488Z,14.45
2022-10-01T06:45:29.179Z,25.13
2022-10-01T06:48:02.669Z,24.17
2022-10-01T06:50:30.375Z,22.63
2022-10-01T06:52:57.658Z,23.52
2022-10-01T06:55:29.316Z,18.83
2022-10-01T06:57:58.341Z,20.30
2022-10-01T07:00:25.775Z,26.88
2022-10-01T07:02:54.181Z,25.55
2022-10-01T07:05:23.729Z,30.38
2022-10-01T07:07:50.543Z,30.73
2022-10-01T07:10:20.882Z,18.33
2022-10-01T07:12:51.339Z,29.55
2022-10-01T07:15:19.670Z,20.83
2022-10-01T07:17:48.932Z,24.58
2022-10-01T07:20:17.814Z,18.75
2022-10-01T07:22:44.969Z,15.95
2022-10-01T07:25:11.773Z,21.52
2022-10-01T07:27:38.720Z,24.23
2022-10-01T07:30:06.528Z,20.77
2022-10-01T07:32:35.453Z,26.67
2022-10-01T07:35:02.211Z,26.08
2022-10-01T07:37:28.989Z,31.50
2022-10-01T07:39:55.733Z,24.60
2022-10-01T07:42:22.494Z,26.25
2022-10-01T07:44:49.285Z,20.30
2022-10-01T07:47:16.096Z,28.17
2022-10-01T07:49:42.788Z,21.88
2022-10-01T07:52:13.152Z,17.92
2022-10-01T07:54:40.415Z,26.25
2022-10-01T07:57:07.210Z,25.83
2022-10-01T07:59:33.964Z,32.45
2022-10-01T08:02:01.235Z,23.60
2022-10-01T08:04:46.459Z,38.10
2022-10-01T08:07:13.167Z,28.23
2022-10-01T08:09:40.114Z,29.98
2022-10-01T08:12:06.924Z,23.50
2022-10-01T08:14:33.645Z,27.38
2022-10-01T08:17:00.528Z,21.83
2022-10-01T08:19:27.389Z,20.75
2022-10-01T08:21:54.292Z,22.73
2022-10-01T08:24:21.043Z,18.23
2022-10-01T08:26:55.987Z,19.85
2022-10-01T08:29:22.752Z,23.23
2022-10-01T08:31:50.246Z,16.65
2022-10-01T08:34:17.052Z,14.75
2022-10-01T08:36:43.844Z,22.95
2022-10-01T08:39:12.659Z,21.83
2022-10-01T08:41:51.397Z,18.35
2022-10-01T08:44:28.532Z,18.90
2022-10-01T08:47:03.948Z,17.63
2022-10-01T08:49:42.529Z,18.95
2022-10-01T08:52:20.298Z,16.10
2022-10-01T08:54:54.614Z,15.82
2022-10-01T08:57:23.187Z,19.42
2022-10-01T08:59:54.240Z,18.08
2022-10-01T09:02:26.104Z,17.67
2022-10-01T09:05:01.502Z,13.57
2022-10-01T09:07:51.833Z,16.60
2022-10-01T09:10:42.241Z,18.00
2022-10-01T09:13:27.719Z,15.30
2022-10-01T09:16:11.305Z,16.77
2022-10-01T09:19:00.439Z,16.40
2022-10-01T09:21:52.893Z,16.48
2022-10-01T09:24:25.799Z,17.17
2022-10-01T09:26:52.659Z,27.73
2022-10-01T09:29:37.783Z,15.15
2022-10-01T09:32:04.499Z,19.27
2022-10-01T09:34:35.257Z,18.80
2022-10-01T09:37:20.888Z,14.27
2022-10-01T09:40:15.506Z,16.02
2022-10-01T09:42:42.565Z,11.70
2022-10-01T09:45:15.797Z,12.13
2022-10-01T09:47:44.265Z,25.27
2022-10-01T09:50:14.872Z,16.63
2022-10-01T09:52:41.629Z,14.50
2022-10-01T09:55:39.177Z,21.13
2022-10-01T09:58:12.776Z,20.92
2022-10-01T10:00:41.028Z,16.98
2022-10-01T10:03:07.865Z,15.68
2022-10-01T10:05:43.145Z,13.07
2022-10-01T10:08:15.597Z,13.13
2022-10-01T10:10:52.648Z,12.00
2022-10-01T10:13:27.839Z,10.20
2022-10-01T10:15:59.043Z,18.73
2022-10-01T10:18:35.592Z,14.50
2022-10-01T10:21:04.264Z,20.02
2022-10-01T10:23:31.413Z,12.18
2022-10-01T10:26:05.629Z,12.90
2022-10-01T10:28:43.816Z,13.15
2022-10-01T10:31:21.796Z,15.80
2022-10-01T10:34:17.303Z,15.05
2022-10-01T10:36:44.716Z,12.93
2022-10-01T10:39:31.337Z,14.20
2022-10-01T10:41:59.020Z,10.82
2022-10-01T10:44:30.342Z,12.45
2022-10-01T10:47:00.303Z,20.27
2022-10-01T10:49:29.535Z,11.48
2022-10-01T10:51:57.901Z,13.50
2022-10-01T10:54:38.667Z,9.30
2022-10-01T10:57:28.180Z,9.98
2022-10-01T11:00:08.462Z,13.60
2022-10-01T11:02:35.368Z,18.88
2022-10-01T11:05:19.343Z,11.80
2022-10-01T11:07:46.725Z,15.18
2022-10-01T11:10:27.965Z,11.93
2022-10-01T11:13:00.933Z,7.60
2022-10-01T11:15:30.504Z,8.95
2022-10-01T11:18:09.365Z,11.35
2022-10-01T11:20:50.577Z,17.10
2022-10-01T11:23:51.590Z,12.48
2022-10-01T11:26:38.123Z,10.85
2022-10-01T11:29:23.565Z,18.48
2022-10-01T11:32:03.206Z,12.90
2022-10-01T11:34:48.708Z,14.90
2022-10-01T11:37:17.530Z,19.80
2022-10-01T11:39:44.405Z,10.52
2022-10-01T11:42:17.871Z,7.90
2022-10-01T11:45:03.214Z,14.57
2022-10-01T11:47:39.189Z,8.57
2022-10-01T11:50:16.237Z,13.32
2022-10-01T11:52:58.472Z,14.95
2022-10-01T11:55:52.782Z,12.15
2022-10-01T11:58:45.893Z,14.57
2022-10-01T12:01:35.153Z,12.65
2022-10-01T12:04:26.137Z,15.20
2022-10-01T12:07:16.603Z,25.48
2022-10-01T12:09:55.340Z,18.02
2022-10-01T12:12:30.077Z,8.27
2022-10-01T12:15:19.833Z,22.08
2022-10-01T12:17:58.284Z,16.00
2022-10-01T12:21:10.641Z,8.27
2022-10-01T12:23:44.105Z,11.95
2022-10-01T12:26:31.936Z,13.68
2022-10-01T12:29:07.367Z,13.80
2022-10-01T12:31:42.075Z,13.43
2022-10-01T12:34:18.274Z,17.35
2022-10-01T12:37:10.151Z,12.98
2022-10-01T12:39:47.866Z,8.45
2022-10-01T12:42:31.266Z,10.07
2022-10-01T12:45:33.265Z,15.05
2022-10-01T12:48:09.313Z,13.85
2022-10-01T12:51:13.716Z,18.65
2022-10-01T12:53:49.156Z,10.55
2022-10-01T12:56:17.158Z,12.55
2022-10-01T12:58:51.277Z,17.42
2022-10-01T13:01:36.259Z,14.63
2022-10-01T13:04:18.332Z,18.50
2022-10-01T13:07:03.915Z,16.25
2022-10-01T13:10:01.242Z,12.07
2022-10-01T13:12:54.950Z,15.45
2022-10-01T13:15:23.969Z,9.35
2022-10-01T13:18:06.047Z,7.35
2022-10-01T13:20:41.311Z,9.68
2022-10-01T13:23:12.795Z,9.38
2022-10-01T13:25:48.679Z,8.23
2022-10-01T13:28:34.284Z,9.40
2022-10-01T13:31:02.662Z,16.25
2022-10-01T13:33:36.081Z,15.90
2022-10-01T13:36:04.710Z,15.25
2022-10-01T13:38:39.689Z,9.63
2022-10-01T13:41:18.053Z,14.02
2022-10-01T13:43:56.751Z,12.25
2022-10-01T13:46:25.243Z,9.65
2022-10-01T13:48:52.403Z,13.13
2022-10-01T13:51:20.388Z,15.35
2022-10-01T13:53:51.998Z,10.93
2022-10-01T13:56:37.713Z,12.90
2022-10-01T13:59:05.410Z,13.20
2022-10-01T14:01:41.853Z,12.95
2022-10-01T14:04:25.463Z,14.18
2022-10-01T14:06:56.331Z,9.32
2022-10-01T14:09:26.497Z,11.27
2022-10-01T14:12:47.881Z,9.00
2022-10-01T14:15:36.222Z,10.25
2022-10-01T14:18:15.363Z,10.10
2022-10-01T14:21:35.854Z,8.82
2022-10-01T14:24:27.976Z,8.98
2022-10-01T14:26:57.010Z,11.50
2022-10-01T14:29:29.762Z,14.85
2022-10-01T14:32:02.469Z,15.40
2022-10-01T14:34:43.640Z,11.13
2022-10-01T14:37:16.962Z,7.97
2022-10-01T14:39:44.197Z,12.10
2022-10-01T14:42:16.974Z,15.80
2022-10-01T14:44:46.461Z,11.02
2022-10-01T14:47:26.054Z,10.63
2022-10-01T14:49:52.958Z,8.75
2022-10-01T14:52:25.590Z,9.48
2022-10-01T14:55:03.649Z,15.77
2022-10-01T14:57:34.532Z,9.55
2022-10-01T15:00:06.891Z,10.98
2022-10-01T15:02:33.718Z,8.00
2022-10-01T15:05:00.497Z,7.75
2022-10-01T15:07:29.119Z,7.13
2022-10-01T15:10:05.956Z,7.28
2022-10-01T15:12:32.697Z,10.68
2022-10-01T15:14:59.350Z,8.60
2022-10-01T15:17:27.079Z,12.77
2022-10-01T15:19:54.861Z,9.52
2022-10-01T15:22:26.991Z,10.65
2022-10-01T15:24:56.963Z,7.50
2022-10-01T15:27:23.829Z,7.65
2022-10-01T15:29:55.981Z,14.93
2022-10-01T15:32:24.165Z,9.95
2022-10-01T15:34:55.407Z,10.63
2022-10-01T15:37:40.749Z,11.38
2022-10-01T15:40:22.990Z,9.57
2022-10-01T15:43:14.651Z,8.77
2022-10-01T15:45:42.404Z,12.45
2022-10-01T15:48:30.382Z,12.52
2022-10-01T15:50:59.522Z,7.07
2022-10-01T15:53:28.459Z,14.73
2022-10-01T15:55:58.928Z,12.77
2022-10-01T15:58:35.701Z,9.05
2022-10-01T16:01:06.022Z,12.32
2022-10-01T16:03:34.615Z,9.23
2022-10-01T16:06:02.611Z,8.02
2022-10-01T16:08:34.547Z,11.52
2022-10-01T16:11:13.620Z,10.70
2022-10-01T16:13:41.515Z,7.38
2022-10-01T16:16:11.332Z,9.40
2022-10-01T16:18:38.147Z,6.70
2022-10-01T16:21:05.633Z,12.45
2022-10-01T16:23:42.127Z,10.13
2022-10-01T16:26:38.896Z,10.85
2022-10-01T16:29:12.482Z,9.77
2022-10-01T16:31:40.099Z,9.15
2022-10-01T16:34:16.921Z,10.00
2022-10-01T16:36:44.482Z,12.80
2022-10-01T16:39:13.769Z,9.55
2022-10-01T16:41:40.710Z,13.02
2022-10-01T16:44:07.528Z,14.75
2022-10-01T16:46:34.546Z,10.80
2022-10-01T16:49:01.578Z,12.85
2022-10-01T16:51:28.727Z,11.23
2022-10-01T16:53:55.478Z,13.30
2022-10-01T16:56:26.922Z,19.85
2022-10-01T16:58:53.974Z,9.57
2022-10-01T17:01:20.812Z,15.75
2022-10-01T17:03:48.819Z,12.60
2022-10-01T17:06:15.903Z,14.68
2022-10-01T17:08:42.646Z,18.42
2022-10-01T17:11:12.636Z,14.43
2022-10-01T17:13:39.628Z,17.58
2022-10-01T17:16:06.689Z,11.57
2022-10-01T17:18:33.625Z,13.43
2022-10-01T17:21:03.412Z,10.90
2022-10-01T17:23:30.235Z,12.95
2022-10-01T17:25:56.985Z,9.00
2022-10-01T17:28:24.552Z,9.82
2022-10-01T17:30:51.447Z,11.20
2022-10-01T17:33:19.980Z,14.27
2022-10-01T17:35:52.138Z,11.27
2022-10-01T17:38:21.034Z,11.40
2022-10-01T17:40:47.953Z,7.95
2022-10-01T17:43:15.746Z,10.10
2022-10-01T17:45:44.432Z,9.40
2022-10-01T17:48:12.523Z,14.93
2022-10-01T17:50:44.163Z,19.15
2022-10-01T17:53:15.511Z,8.70
2022-10-01T17:55:44.583Z,16.50
2022-10-01T17:58:12.031Z,13.43
2022-10-01T18:00:41.216Z,9.55
2022-10-01T18:03:08.092Z,13.07
2022-10-01T18:05:35.159Z,11.23
2022-10-01T18:08:02.101Z,20.00
2022-10-01T18:10:29.092Z,12.88
2022-10-01T18:12:57.692Z,12.15
2022-10-01T18:15:24.768Z,11.90
2022-10-01T18:18:38.089Z,11.30
2022-10-01T18:20:40.379Z,9.18
2022-10-01T18:23:08.522Z,9.43
2022-10-01T18:25:36.355Z,13.32
2022-10-01T18:28:03.199Z,12.43
2022-10-01T18:30:31.331Z,15.02
2022-10-01T18:32:59.550Z,8.02
2022-10-01T18:35:31.877Z,13.80
2022-10-01T18:38:26.947Z,11.85
2022-10-01T18:41:00.104Z,13.95
2022-10-01T18:43:26.951Z,12.50
2022-10-01T18:46:05.588Z,21.00
2022-10-01T18:48:41.510Z,11.57
2022-10-01T18:51:29.169Z,9.70
2022-10-01T18:54:11.336Z,11.00
2022-10-01T18:56:40.571Z,8.73
2022-10-01T18:59:39.949Z,11.55
2022-10-01T19:02:41.167Z,8.95
2022-10-01T19:05:11.384Z,15.52
2022-10-01T19:07:54.096Z,11.75
2022-10-01T19:10:52.555Z,11.02
2022-10-01T19:13:30.704Z,11.48
2022-10-01T19:16:14.230Z,17.92
2022-10-01T19:18:52.582Z,10.88
2022-10-01T19:21:28.106Z,13.68
2022-10-01T19:23:57.556Z,12.98
2022-10-01T19:26:28.893Z,17.27
2022-10-01T19:29:02.098Z,16.77
2022-10-01T19:31:31.577Z,15.20
2022-10-01T19:34:13.924Z,17.52
2022-10-01T19:36:44.731Z,7.75
2022-10-01T19:39:20.208Z,15.38
2022-10-01T19:42:11.238Z,9.80
2022-10-01T19:45:01.177Z,13.48
2022-10-01T19:47:39.268Z,11.95
2022-10-01T19:50:45.600Z,12.52
2022-10-01T19:53:30.948Z,14.80
2022-10-01T19:55:59.306Z,16.92
2022-10-01T19:58:32.666Z,8.15
2022-10-01T20:01:01.247Z,10.60
2022-10-01T20:03:42.058Z,13.57
2022-10-01T20:06:29.019Z,14.75
2022-10-01T20:08:59.661Z,12.48
2022-10-01T20:11:41.065Z,10.55
2022-10-01T20:15:02.795Z,15.00
2022-10-01T20:17:40.430Z,11.05
2022-10-01T20:20:07.462Z,10.93
2022-10-01T20:22:40.329Z,8.70
2022-10-01T20:25:16.700Z,17.30
2022-10-01T20:27:49.474Z,14.57
2022-10-01T20:30:20.619Z,9.83
2022-10-01T20:33:00.732Z,15.73
2022-10-01T20:35:47.934Z,15.15
2022-10-01T20:38:20.793Z,8.13
2022-10-01T20:40:52.600Z,14.17
2022-10-01T20:43:39.917Z,9.45
2022-10-01T20:46:11.640Z,15.65
2022-10-01T20:48:42.247Z,8.20
2022-10-01T20:51:17.274Z,13.05
2022-10-01T20:53:55.983Z,17.50
2022-10-01T20:56:32.081Z,10.55
2022-10-01T20:59:17.740Z,8.80
2022-10-01T21:02:02.322Z,7.00
2022-10-01T21:04:39.526Z,10.90
2022-10-01T21:07:30.510Z,17.48
2022-10-01T21:09:58.886Z,10.68
2022-10-01T21:12:35.961Z,15.30
2022-10-01T21:15:04.335Z,14.05
2022-10-01T21:17:44.057Z,7.45
2022-10-01T21:20:33.318Z,10.27
2022-10-01T21:23:30.166Z,8.88
2022-10-01T21:26:34.733Z,10.73
2022-10-01T21:29:24.383Z,7.85
2022-10-01T21:32:12.351Z,8.55
2022-10-01T21:34:43.753Z,12.27
2022-10-01T21:37:13.428Z,8.70
2022-10-01T21:39:59.190Z,12.25
2022-10-01T21:42:35.034Z,10.05
2022-10-01T21:45:22.329Z,8.25
2022-10-01T21:47:55.119Z,13.00
2022-10-01T21:50:44.376Z,7.00
2022-10-01T21:53:38.773Z,9.98
2022-10-01T21:59:04.969Z,15.50
2022-10-01T22:01:35.693Z,7.95
2022-10-01T22:04:20.928Z,12.30
2022-10-01T22:06:58.517Z,9.10
2022-10-01T22:09:44.472Z,11.18
2022-10-01T22:12:12.918Z,7.07
2022-10-01T22:14:39.788Z,17.27
2022-10-01T22:17:15.790Z,13.57
2022-10-01T22:19:48.679Z,8.10
2022-10-01T22:22:29.448Z,10.23
2022-10-01T22:24:59.282Z,16.67
2022-10-01T22:27:37.397Z,16.50
2022-10-01T22:30:12.023Z,18.83
2022-10-01T22:33:13.295Z,13.45
2022-10-01T22:35:54.025Z,14.68
2022-10-01T22:38:29.692Z,13.38
2022-10-01T22:41:07.501Z,12.38
2022-10-01T22:43:34.921Z,16.30
2022-10-01T22:46:41.050Z,16.65
2022-10-01T22:49:14.185Z,16.67
2022-10-01T22:51:40.858Z,22.42
2022-10-01T22:54:13.780Z,18.85
2022-10-01T22:57:14.219Z,13.57
2022-10-01T23:00:09.973Z,24.48
2022-10-01T23:02:41.020Z,14.32
2022-10-01T23:05:35.211Z,22.92
2022-10-01T23:08:24.376Z,17.05
2022-10-01T23:10:54.822Z,20.92
2022-10-01T23:13:40.141Z,18.50
2022-10-01T23:16:35.117Z,13.73
2022-10-01T23:19:23.618Z,23.40
2022-10-01T23:22:00.966Z,15.48
2022-10-01T23:24:57.140Z,19.60
2022-10-01T23:27:53.204Z,13.52
2022-10-01T23:30:20.284Z,20.02
2022-10-01T23:33:08.578Z,20.23
2022-10-01T23:36:06.878Z,27.25
2022-10-01T23:38:48.012Z,16.35
2022-10-01T23:41:21.101Z,18.13
2022-10-01T23:43:49.970Z,22.80
2022-10-01T23:46:23.931Z,17.60
2022-10-01T23:48:58.239Z,20.17
2022-10-01T23:51:35.785Z,29.35
2022-10-01T23:54:04.938Z,19.85
2022-10-01T23:56:48.642Z,15.50
2022-10-01T23:59:37.617Z,14.93
